Time;durP1;ratioP1;P1;durP2;ratioP2;P2;SDS_P1;SDS_P2;PMS_P1;PMS_P2;Temp;Humidity;BMP_temperature;BMP_pressure;BME280_temperature;BME280_humidity;BME280_pressure;Samples;Min_cycle;Max_cycle;Signal;HPM_P1;HPM_P2
2022/01/13 00:01:42;;;;;;;24.80;11.07;;;;;;;-1.92;64.54;101770.22;5089212;28;20028;-20
2022/01/13 00:04:10;;;;;;;28.95;12.73;;;;;;;-1.92;64.25;101766.75;5089193;28;20028;-20
2022/01/13 00:06:35;;;;;;;26.65;11.32;;;;;;;-1.82;63.82;101778.31;5053943;28;20036;-20
2022/01/13 00:09:01;;;;;;;25.17;11.38;;;;;;;-1.98;64.07;101774.97;5088776;28;20047;-20
2022/01/13 00:11:26;;;;;;;27.65;13.57;;;;;;;-2.17;64.96;101776.13;5089160;28;20039;-20
2022/01/13 00:16:45;;;;;;;24.65;11.45;;;;;;;-2.50;66.40;101771.16;5073285;28;20062;-20
2022/01/13 00:21:47;;;;;;;;;;;;;;;-1.99;65.90;101781.16;5089480;28;20055;-20
2022/01/13 00:24:13;;;;;;;25.23;11.50;;;;;;;-2.27;65.80;101777.63;5088939;28;20115;-20
2022/01/13 00:26:39;;;;;;;21.98;11.00;;;;;;;-2.26;67.38;101784.53;5088981;28;20024;-20
2022/01/13 00:29:05;;;;;;;26.38;12.27;;;;;;;-1.91;65.11;101789.38;5088370;28;20052;-20
2022/01/13 00:31:33;;;;;;;25.33;11.27;;;;;;;-2.13;65.71;101790.69;5070670;28;20028;-20
2022/01/13 00:34:01;;;;;;;31.15;14.73;;;;;;;-2.57;66.28;101775.09;5088633;28;20560;-20
2022/01/13 00:36:31;;;;;;;47.78;20.23;;;;;;;-2.63;67.06;101787.56;5088623;28;20107;-20
2022/01/13 00:38:56;;;;;;;53.22;21.65;;;;;;;-2.57;66.64;101769.88;5071041;28;20028;-22
2022/01/13 00:41:23;;;;;;;44.33;19.75;;;;;;;-2.33;65.88;101788.44;5070397;28;20123;-22
2022/01/13 00:43:48;;;;;;;35.05;17.02;;;;;;;-2.13;65.60;101808.97;5088406;28;20024;-21
2022/01/13 00:46:26;;;;;;;31.98;14.15;;;;;;;-2.22;64.43;101801.72;5088315;28;20046;-20
2022/01/13 00:48:52;;;;;;;25.40;12.60;;;;;;;-1.94;64.70;101810.47;5088685;28;20514;-20
2022/01/13 00:51:18;;;;;;;22.27;11.48;;;;;;;-2.20;64.43;101804.25;5088396;28;20027;-20
2022/01/13 00:53:44;;;;;;;18.92;11.25;;;;;;;-2.13;64.18;101818.59;5088291;28;20456;-22
2022/01/13 00:56:10;;;;;;;17.13;10.20;;;;;;;-1.98;63.29;101814.19;5088301;28;20020;-20
2022/01/13 00:58:36;;;;;;;22.95;12.85;;;;;;;-2.24;64.41;101808.81;5088326;28;20024;-20
2022/01/13 01:01:02;;;;;;;68.32;37.40;;;;;;;-2.52;66.10;101813.06;5087664;28;20035;-21
2022/01/13 01:03:28;;;;;;;21.65;12.63;;;;;;;-2.36;65.41;101818.22;5088044;28;20043;-20
2022/01/13 01:05:53;;;;;;;54.83;31.08;;;;;;;-2.19;64.83;101821.59;5088114;28;20032;-20
2022/01/13 01:08:19;;;;;;;23.08;12.48;;;;;;;-2.38;64.36;101791.34;5088110;28;20032;-21
2022/01/13 01:10:46;;;;;;;23.35;11.95;;;;;;;-2.49;64.61;101785.94;5087969;28;20020;-20
2022/01/13 01:13:15;;;;;;;34.03;25.90;;;;;;;-2.22;64.96;101812.16;5069892;28;20036;-20
2022/01/13 01:15:44;;;;;;;19.30;10.52;;;;;;;-2.23;64.40;101810.47;5070075;28;20084;-20
2022/01/13 01:18:35;;;;;;;21.33;14.43;;;;;;;-2.30;63.95;101819.63;5087775;28;20081;-20
2022/01/13 01:23:29;;;;;;;20.20;10.88;;;;;;;-3.45;67.64;101814.06;5087827;28;20032;-21
2022/01/13 01:26:04;;;;;;;31.45;10.63;;;;;;;-3.13;68.11;101808.78;5069310;28;20031;-21
2022/01/13 01:28:40;;;;;;;22.85;11.52;;;;;;;-3.04;67.53;101813.50;5087804;28;20414;-22
2022/01/13 01:31:05;;;;;;;20.40;10.20;;;;;;;-2.88;67.57;101811.69;5087691;28;20020;-21
2022/01/13 01:33:33;;;;;;;21.50;10.23;;;;;;;-2.58;66.01;101816.03;5087537;28;20039;-20
2022/01/13 01:35:58;;;;;;;34.35;16.50;;;;;;;-3.00;67.45;101793.25;5087604;28;20081;-20
2022/01/13 01:38:24;;;;;;;46.63;21.13;;;;;;;-3.02;66.95;101795.97;5069135;28;20028;-20
2022/01/13 01:40:49;;;;;;;30.20;14.07;;;;;;;-2.59;65.00;101823.97;5087696;28;20453;-22
2022/01/13 01:43:15;;;;;;;23.98;12.48;;;;;;;-3.05;66.01;101811.78;5087622;28;20355;-20
2022/01/13 01:45:44;;;;;;;30.95;16.15;;;;;;;-3.41;66.99;101812.97;5087471;28;20039;-20
2022/01/13 01:48:11;;;;;;;34.42;19.83;;;;;;;-3.63;68.02;101827.16;5068992;28;20445;-22
2022/01/13 01:50:38;;;;;;;25.30;12.65;;;;;;;-3.61;68.71;101829.69;5087641;28;20030;-21
2022/01/13 01:53:03;;;;;;;23.52;11.73;;;;;;;-3.10;66.66;101832.94;5086994;28;20431;-20
2022/01/13 01:55:29;;;;;;;30.25;21.08;;;;;;;-3.26;66.50;101825.13;5087627;28;20042;-21
2022/01/13 01:57:54;;;;;;;30.25;16.92;;;;;;;-3.22;65.83;101828.41;5087530;28;20028;-21
2022/01/13 02:00:21;;;;;;;28.75;15.50;;;;;;;-3.42;66.61;101813.03;5087732;28;20036;-20
2022/01/13 02:02:46;;;;;;;30.42;16.33;;;;;;;-3.29;66.63;101827.06;5069315;28;20457;-20
2022/01/13 02:05:12;;;;;;;57.97;28.95;;;;;;;-3.38;64.98;101814.56;5087348;28;20036;-20
2022/01/13 02:07:38;;;;;;;32.85;18.70;;;;;;;-3.32;65.24;101812.44;5069135;28;20039;-20
2022/01/13 02:10:04;;;;;;;36.45;18.13;;;;;;;-3.11;64.11;101807.75;5087395;28;20420;-21
2022/01/13 02:12:36;;;;;;;26.05;13.23;;;;;;;-3.01;64.04;101828.13;5087297;28;20028;-20
2022/01/13 02:17:38;;;;;;;30.02;16.35;;;;;;;-3.63;65.63;101828.94;5057835;28;20452;-20
2022/01/13 02:20:04;;;;;;;26.27;14.07;;;;;;;-3.71;65.98;101810.25;5091059;28;20196;-20
2022/01/13 02:22:29;;;;;;;24.30;11.50;;;;;;;-3.37;66.19;101816.22;5091272;28;20032;-21
2022/01/13 02:24:55;;;;;;;20.48;9.65;;;;;;;-3.59;65.88;101812.19;5091222;28;20028;-21
2022/01/13 02:27:20;;;;;;;22.75;9.90;;;;;;;-3.27;65.82;101827.81;5072904;28;20548;-20
2022/01/13 02:29:46;;;;;;;16.35;8.70;;;;;;;-3.64;65.29;101804.63;5091097;28;20024;-21
2022/01/13 02:32:11;;;;;;;18.63;8.68;;;;;;;-3.84;66.31;101817.91;5091165;28;20093;-20
2022/01/13 02:34:37;;;;;;;20.75;9.40;;;;;;;-4.19;67.34;101818.00;5090995;28;20028;-21
2022/01/13 02:37:03;;;;;;;17.75;9.45;;;;;;;-4.06;68.18;101813.84;5091055;28;20040;-20
2022/01/13 02:39:28;;;;;;;14.95;7.57;;;;;;;-4.14;67.18;101821.22;5056559;28;20023;-21
2022/01/13 02:41:54;;;;;;;17.58;8.48;;;;;;;-3.92;67.93;101820.94;5090712;28;20032;-21
2022/01/13 02:44:22;;;;;;;16.58;8.85;;;;;;;-3.83;68.28;101819.59;5090893;28;20041;-20
2022/01/13 02:49:14;;;;;;;19.15;8.35;;;;;;;-3.55;67.63;101823.31;5090224;28;20122;-21
2022/01/13 02:51:40;;;;;;;18.05;8.43;;;;;;;-3.86;68.12;101806.72;5072606;28;20102;-20
2022/01/13 02:54:06;;;;;;;15.30;8.18;;;;;;;-3.97;67.66;101812.50;5055994;28;20032;-20
2022/01/13 02:56:32;;;;;;;18.33;8.35;;;;;;;-4.54;69.68;101835.44;5090587;28;20043;-20
2022/01/13 02:58:57;;;;;;;16.98;8.20;;;;;;;-4.18;68.55;101800.63;5090415;28;20034;-21
2022/01/13 03:01:23;;;;;;;18.73;8.48;;;;;;;-4.07;67.85;101817.34;5072455;28;20051;-20
2022/01/13 03:03:48;;;;;;;24.52;17.15;;;;;;;-4.06;68.08;101816.44;5090238;28;20028;-21
2022/01/13 03:06:15;;;;;;;21.02;12.07;;;;;;;-4.39;68.43;101811.25;5090357;28;20044;-20
2022/01/13 03:08:46;;;;;;;41.45;24.13;;;;;;;-4.64;70.48;101811.63;5072162;28;20020;-20
2022/01/13 03:11:11;;;;;;;266.70;127.70;;;;;;;-4.95;71.30;101801.91;5071924;28;20465;-21
2022/01/13 03:13:37;;;;;;;110.65;58.40;;;;;;;-4.85;70.82;101814.38;5090191;28;20028;-20
2022/01/13 03:16:13;;;;;;;79.50;46.60;;;;;;;-5.21;72.58;101792.78;5072278;28;20040;-21
2022/01/13 03:18:38;;;;;;;130.93;87.88;;;;;;;-5.19;72.62;101810.00;5071594;28;20381;-20
2022/01/13 03:21:04;;;;;;;53.65;37.45;;;;;;;-4.75;71.53;101798.31;5055210;28;20038;-20
2022/01/13 03:23:30;;;;;;;26.55;17.38;;;;;;;-4.78;70.51;101821.88;5071718;28;20118;-21
2022/01/13 03:25:56;;;;;;;30.58;21.65;;;;;;;-4.77;70.99;101810.56;5090203;28;20028;-21
2022/01/13 03:28:39;;;;;;;17.02;8.07;;;;;;;-4.60;70.24;101797.53;5088783;28;20412;-20
2022/01/13 03:31:04;;;;;;;16.52;8.45;;;;;;;-4.62;70.63;101791.56;5089780;28;20031;-21
2022/01/13 03:33:30;;;;;;;16.63;7.50;;;;;;;-4.50;69.99;101795.31;5055063;28;20518;-21
2022/01/13 03:35:55;;;;;;;14.80;7.65;;;;;;;-4.27;69.73;101794.09;5090288;28;20507;-21
2022/01/13 03:38:21;;;;;;;15.45;7.30;;;;;;;-4.08;68.80;101800.03;5089975;28;20032;-20
2022/01/13 03:40:46;;;;;;;15.45;6.97;;;;;;;-4.47;69.12;101787.34;5071565;28;20032;-20
2022/01/13 03:43:14;;;;;;;18.75;7.70;;;;;;;-5.03;70.45;101794.47;5089549;28;20035;-22
2022/01/13 03:45:39;;;;;;;14.68;7.45;;;;;;;-5.07;71.52;101814.63;5089557;28;20490;-20
2022/01/13 03:48:06;;;;;;;14.90;7.40;;;;;;;-4.67;70.78;101798.78;5089549;28;20032;-20
2022/01/13 03:50:32;;;;;;;17.27;7.40;;;;;;;-5.29;72.06;101809.59;5089717;28;20024;-20
2022/01/13 03:52:57;;;;;;;16.52;9.95;;;;;;;-5.49;73.17;101813.16;5089231;28;20531;-20
2022/01/13 03:55:35;;;;;;;20.95;14.40;;;;;;;-5.20;72.38;101805.72;5089536;28;20032;-21
2022/01/13 03:58:28;;;;;;;21.05;18.85;;;;;;;-5.53;72.94;101822.00;5070997;28;20043;-20
2022/01/13 04:01:19;;;;;;;19.75;8.48;;;;;;;-5.60;73.42;101810.19;5089510;28;20496;-21
2022/01/13 04:03:45;;;;;;;18.98;8.38;;;;;;;-5.60;72.40;101784.19;5089511;28;20031;-21
2022/01/13 04:06:13;;;;;;;14.15;7.22;;;;;;;-5.43;71.68;101814.63;5089072;28;20056;-20
2022/01/13 04:08:39;;;;;;;14.77;6.70;;;;;;;-5.78;73.65;101814.50;5089608;28;20035;-21
2022/01/13 04:11:04;;;;;;;14.90;7.47;;;;;;;-6.16;74.05;101824.88;5089045;28;20039;-21
2022/01/13 04:13:57;;;;;;;25.35;8.95;;;;;;;-5.66;73.69;101811.34;5089281;28;20476;-20
2022/01/13 04:16:42;;;;;;;19.55;8.07;;;;;;;-5.16;71.15;101829.81;5088539;28;20421;-20
2022/01/13 04:19:08;;;;;;;17.27;7.90;;;;;;;-5.60;72.71;101828.38;5088596;28;20496;-20
2022/01/13 04:21:34;;;;;;;17.33;7.43;;;;;;;-5.22;70.79;101848.31;5089117;28;20035;-21
2022/01/13 04:24:00;;;;;;;18.45;8.10;;;;;;;-5.07;70.79;101835.44;5071157;28;20212;-21
2022/01/13 04:26:30;;;;;;;17.55;7.93;;;;;;;-4.46;68.84;101841.94;5088898;28;20114;-20
2022/01/13 04:29:27;;;;;;;16.30;7.82;;;;;;;-4.67;69.22;101843.03;5088795;28;20503;-21
2022/01/13 04:31:49;;;;;;;27.02;11.75;;;;;;;-4.69;69.42;101829.25;5074051;28;20077;-20
2022/01/13 04:34:15;;;;;;;45.08;15.35;;;;;;;-4.49;68.95;101852.53;5088137;28;20079;-20
2022/01/13 04:36:41;;;;;;;34.10;14.02;;;;;;;-5.05;70.31;101849.22;5070542;28;20527;-21
2022/01/13 04:39:07;;;;;;;36.47;15.60;;;;;;;-5.64;71.24;101829.44;5088289;28;20101;-20
2022/01/13 04:41:37;;;;;;;38.65;19.80;;;;;;;-5.56;72.58;101848.13;5070329;28;20047;-21
2022/01/13 04:44:06;;;;;;;40.53;18.90;;;;;;;-4.99;71.63;101852.41;5088831;28;20069;-20
2022/01/13 04:46:31;;;;;;;39.17;17.20;;;;;;;-5.09;71.58;101846.81;5070752;28;20543;-20
2022/01/13 04:48:57;;;;;;;24.30;10.75;;;;;;;-4.99;70.81;101848.06;5070108;28;20024;-20
2022/01/13 04:51:22;;;;;;;29.10;12.73;;;;;;;-5.05;71.08;101835.34;5088807;28;20721;-20
2022/01/13 04:53:48;;;;;;;25.10;12.45;;;;;;;-5.27;71.82;101832.91;5088401;28;20036;-20
2022/01/13 04:56:26;;;;;;;22.83;12.57;;;;;;;-5.46;72.95;101843.34;5088337;28;20093;-20
2022/01/13 04:58:51;;;;;;;23.92;12.80;;;;;;;-5.67;73.60;101846.03;5088569;28;20039;-20
2022/01/13 05:01:17;;;;;;;14.65;7.53;;;;;;;-5.66;73.29;101852.94;5070102;28;20036;-21
2022/01/13 05:03:42;;;;;;;16.67;7.78;;;;;;;-5.43;72.87;101843.22;5088209;28;20035;-20
2022/01/13 05:06:08;;;;;;;16.90;7.32;;;;;;;-5.54;72.20;101845.47;5088153;28;20032;-20
2022/01/13 05:08:34;;;;;;;18.40;7.65;;;;;;;-5.36;73.92;101844.59;5087926;28;20483;-20
2022/01/13 05:10:59;;;;;;;18.17;7.38;;;;;;;-5.10;71.36;101855.53;5069442;28;20028;-20
2022/01/13 05:13:25;;;;;;;16.05;7.05;;;;;;;-5.11;71.91;101841.69;5088189;28;20411;-21
2022/01/13 05:15:52;;;;;;;17.00;7.65;;;;;;;-5.02;71.68;101837.81;5088307;28;20120;-21
2022/01/13 05:21:06;;;;;;;15.35;7.65;;;;;;;-4.86;70.09;101869.97;5055698;28;20127;-20
2022/01/13 05:23:32;;;;;;;;;;;;;;;-4.86;69.62;101869.97;5088654;28;20483;-21
2022/01/13 05:25:57;;;;;;;23.77;9.70;;;;;;;-5.76;71.70;101868.97;5069950;28;20010;-21
2022/01/13 05:28:23;;;;;;;34.75;15.70;;;;;;;-5.63;71.97;101866.69;5069695;28;20031;-21
2022/01/13 05:30:48;;;;;;;40.63;19.85;;;;;;;-5.51;72.28;101873.94;5087927;28;20032;-21
2022/01/13 05:33:14;;;;;;;22.50;10.63;;;;;;;-5.62;70.87;101863.16;5069075;28;20043;-20
2022/01/13 05:35:40;;;;;;;14.45;7.40;;;;;;;-5.70;70.69;101851.38;5087915;28;20560;-20
2022/01/13 05:38:06;;;;;;;14.68;6.53;;;;;;;-5.91;71.53;101886.09;5087525;28;20031;-22
2022/01/13 05:40:32;;;;;;;15.38;7.88;;;;;;;-5.88;71.90;101867.81;5069636;28;20110;-20
2022/01/13 05:42:58;;;;;;;18.90;9.38;;;;;;;-5.77;71.48;101886.34;5087604;28;20164;-22
2022/01/13 05:45:28;;;;;;;21.65;11.82;;;;;;;-5.40;71.19;101882.06;5069387;28;20114;-20
2022/01/13 05:47:54;;;;;;;18.42;9.48;;;;;;;-5.97;72.12;101868.22;5054187;28;20047;-20
2022/01/13 05:50:20;;;;;;;21.52;10.43;;;;;;;-5.52;70.94;101885.22;5087362;28;20135;-21
2022/01/13 05:52:46;;;;;;;23.75;13.13;;;;;;;-5.34;70.92;101886.97;5086902;28;20035;-20
2022/01/13 05:55:11;;;;;;;33.17;16.50;;;;;;;-5.06;70.41;101888.31;5069148;28;20431;-21
2022/01/13 05:57:37;;;;;;;34.63;18.05;;;;;;;-5.21;70.06;101883.81;5069472;28;20024;-20
2022/01/13 06:00:04;;;;;;;38.60;19.83;;;;;;;-4.93;68.98;101884.19;5087314;28;20028;-21
2022/01/13 06:02:29;;;;;;;43.53;24.80;;;;;;;-5.26;71.14;101884.88;5069734;28;20552;-20
2022/01/13 06:04:55;;;;;;;38.58;22.73;;;;;;;-4.87;70.21;101894.28;5087334;28;20032;-20
2022/01/13 06:07:20;;;;;;;27.45;15.98;;;;;;;-5.38;72.47;101914.03;5087247;28;20515;-20
2022/01/13 06:09:46;;;;;;;30.75;16.73;;;;;;;-5.32;72.40;101890.34;5087372;28;20035;-20
2022/01/13 06:12:11;;;;;;;32.25;15.18;;;;;;;-4.83;72.34;101914.97;5087247;28;20058;-20
2022/01/13 06:14:37;;;;;;;25.02;12.27;;;;;;;-4.98;72.52;101914.81;5087232;28;20381;-20
2022/01/13 06:17:02;;;;;;;25.33;12.40;;;;;;;-4.91;72.52;101913.56;5069062;28;20635;-21
2022/01/13 06:19:28;;;;;;;20.27;10.80;;;;;;;-4.55;71.97;101915.31;5087012;28;20056;-21
2022/01/13 06:21:53;;;;;;;20.50;9.93;;;;;;;-4.20;71.03;101917.94;5087082;28;20035;-21
2022/01/13 06:24:19;;;;;;;20.58;9.68;;;;;;;-3.91;70.32;101923.41;5087681;28;20031;-21
2022/01/13 06:26:44;;;;;;;19.45;9.10;;;;;;;-3.93;69.87;101930.47;5087487;28;20431;-20
2022/01/13 06:29:10;;;;;;;21.02;9.32;;;;;;;-3.72;69.57;101931.09;5087094;28;20089;-20
2022/01/13 06:31:35;;;;;;;19.02;8.52;;;;;;;-3.81;69.72;101932.44;5087195;28;20035;-20
2022/01/13 06:34:00;;;;;;;19.60;9.25;;;;;;;-3.83;69.71;101942.09;5068879;28;20039;-20
2022/01/13 06:36:26;;;;;;;19.13;8.05;;;;;;;-3.83;69.39;101939.50;5068773;28;20563;-20
2022/01/13 06:38:51;;;;;;;15.90;8.07;;;;;;;-3.60;68.69;101925.25;5086905;28;20032;-21
2022/01/13 06:41:17;;;;;;;18.50;8.05;;;;;;;-3.33;68.15;101938.59;5087121;28;20039;-21
2022/01/13 06:43:43;;;;;;;17.13;7.82;;;;;;;-3.58;68.81;101927.78;5087673;28;20028;-20
2022/01/13 06:46:11;;;;;;;19.75;7.72;;;;;;;-3.32;68.14;101939.44;5087584;28;20419;-20
2022/01/13 06:48:37;;;;;;;15.80;8.93;;;;;;;-3.26;68.44;101947.78;5068891;28;20101;-20
2022/01/13 06:51:02;;;;;;;21.25;10.98;;;;;;;-3.25;69.08;101946.84;5086545;28;20423;-21
2022/01/13 06:53:27;;;;;;;111.93;68.15;;;;;;;-2.93;67.72;101941.63;5087333;28;20457;-21
2022/01/13 06:55:53;;;;;;;14.32;7.80;;;;;;;-3.49;69.11;101953.38;5086877;28;20043;-20
2022/01/13 06:58:18;;;;;;;12.27;6.43;;;;;;;-3.27;69.08;101948.72;5086855;28;20031;-20
2022/01/13 07:00:44;;;;;;;13.75;6.10;;;;;;;-3.68;70.76;101949.16;5086649;28;20036;-20
2022/01/13 07:03:10;;;;;;;14.30;6.65;;;;;;;-3.67;71.96;101942.16;5088287;28;20024;-20
2022/01/13 07:05:35;;;;;;;12.57;6.55;;;;;;;-3.47;70.89;101948.94;5090147;28;20703;-20
2022/01/13 07:08:01;;;;;;;13.32;6.40;;;;;;;-3.44;71.19;101946.16;5071958;28;20039;-20
2022/01/13 07:10:27;;;;;;;15.80;6.53;;;;;;;-3.37;71.11;101962.31;5072412;28;20491;-20
2022/01/13 07:12:52;;;;;;;17.17;7.18;;;;;;;-3.42;70.38;101970.38;5090266;28;20039;-21
2022/01/13 07:15:19;;;;;;;15.88;7.47;;;;;;;-3.13;69.57;101968.81;5055175;28;20089;-20
2022/01/13 07:17:45;;;;;;;16.05;7.00;;;;;;;-3.26;70.14;101971.25;5071754;28;20043;-20
2022/01/13 07:20:11;;;;;;;14.73;6.88;;;;;;;-3.04;70.91;101975.31;5090011;28;20101;-21
2022/01/13 07:22:37;;;;;;;17.23;8.32;;;;;;;-3.06;69.83;101924.97;5090072;28;20479;-21
2022/01/13 07:25:04;;;;;;;16.42;7.20;;;;;;;-2.14;68.33;101982.44;5090266;28;20761;-20
2022/01/13 07:27:29;;;;;;;14.65;6.93;;;;;;;-2.12;67.27;101983.19;5071995;28;20052;-20
2022/01/13 07:29:55;;;;;;;17.50;8.85;;;;;;;-2.23;66.15;101985.56;5089853;28;20093;-20
2022/01/13 07:32:20;;;;;;;20.92;9.80;;;;;;;-2.20;67.01;101993.25;5089904;28;20039;-21
2022/01/13 07:34:45;;;;;;;19.38;9.00;;;;;;;-2.34;66.43;101991.44;5089547;28;20028;-21
2022/01/13 07:37:11;;;;;;;20.92;10.60;;;;;;;-2.29;66.18;101971.13;5089701;28;20032;-20
2022/01/13 07:39:36;;;;;;;26.92;14.32;;;;;;;-1.75;64.95;101983.66;5090040;28;20024;-20
2022/01/13 07:42:03;;;;;;;21.35;10.80;;;;;;;-1.86;63.74;101986.03;5071648;28;20047;-20
2022/01/13 07:44:29;;;;;;;18.63;9.80;;;;;;;-1.92;64.82;101986.41;5071386;28;20027;-20
2022/01/13 07:46:56;;;;;;;18.67;8.13;;;;;;;-1.97;62.78;101951.84;5089463;28;20036;-20
2022/01/13 07:49:21;;;;;;;15.52;7.47;;;;;;;-1.72;61.07;101967.75;5089149;28;20020;-20
2022/01/13 07:51:47;;;;;;;16.13;8.15;;;;;;;-1.78;62.51;101978.59;5089194;28;20039;-20
2022/01/13 07:54:12;;;;;;;15.63;7.22;;;;;;;-1.43;60.24;101993.94;5089681;28;20039;-20
2022/01/13 07:56:38;;;;;;;15.93;8.38;;;;;;;-1.32;61.81;102004.59;5089323;28;20047;-20
2022/01/13 07:59:03;;;;;;;17.80;8.45;;;;;;;-1.19;60.34;101996.00;5089406;28;20020;-20
2022/01/13 08:01:28;;;;;;;16.85;8.20;;;;;;;-1.40;61.47;102009.47;5089099;28;20450;-20
2022/01/13 08:03:54;;;;;;;13.57;6.68;;;;;;;-1.26;62.38;102006.84;5089098;28;20036;-21
2022/01/13 08:06:19;;;;;;;12.88;6.55;;;;;;;-0.95;60.25;102004.09;5089134;28;20032;-21
2022/01/13 08:08:45;;;;;;;13.90;6.70;;;;;;;-1.13;61.26;102003.47;5070898;28;20077;-21
2022/01/13 08:11:10;;;;;;;14.50;6.88;;;;;;;-0.98;61.10;101999.91;5089021;28;20035;-21
2022/01/13 08:13:36;;;;;;;18.33;7.25;;;;;;;-0.64;60.95;102010.84;5089016;28;20421;-20
2022/01/13 08:16:06;;;;;;;14.02;7.18;;;;;;;-0.90;60.94;102013.34;5088800;28;20511;-20
2022/01/13 08:21:15;;;;;;;18.75;10.18;;;;;;;-0.34;61.16;102000.19;5073241;28;20539;-20
2022/01/13 08:23:41;;;;;;;14.73;6.90;;;;;;;-0.50;60.78;101992.47;5070823;28;20040;-20
2022/01/13 08:26:06;;;;;;;17.88;8.48;;;;;;;-0.72;59.56;101990.38;5088779;28;20461;-20
2022/01/13 08:28:33;;;;;;;17.10;7.55;;;;;;;-0.89;60.36;101970.50;5088301;28;20050;-20
2022/01/13 08:30:59;;;;;;;18.75;8.55;;;;;;;-0.68;60.66;101986.63;5069975;28;20028;-21
2022/01/13 08:33:24;;;;;;;13.05;6.88;;;;;;;-0.07;59.80;101987.00;5088784;28;20040;-20
2022/01/13 08:35:50;;;;;;;15.90;7.95;;;;;;;-0.29;59.21;101984.97;5088565;28;20054;-21
2022/01/13 08:38:18;;;;;;;19.17;9.07;;;;;;;-0.26;59.31;101978.69;5088399;28;20035;-20
2022/01/13 08:40:45;;;;;;;21.52;9.00;;;;;;;-0.31;59.30;102001.75;5088612;28;20100;-20
2022/01/13 08:43:10;;;;;;;27.17;13.25;;;;;;;-0.06;59.82;102012.31;5070174;28;20043;-21
2022/01/13 08:45:35;;;;;;;35.30;19.90;;;;;;;0.28;58.67;101991.66;5088119;28;20024;-20
2022/01/13 08:48:01;;;;;;;18.23;8.13;;;;;;;0.55;58.56;102014.34;5070206;28;20028;-20
2022/01/13 08:50:26;;;;;;;18.35;8.95;;;;;;;0.49;58.88;102009.53;5088109;28;20419;-20
2022/01/13 08:52:52;;;;;;;14.63;9.25;;;;;;;0.63;58.35;102017.28;5088118;28;20039;-22
2022/01/13 08:55:17;;;;;;;17.05;8.27;;;;;;;0.77;57.89;102014.53;5087826;28;20024;-20
2022/01/13 08:57:43;;;;;;;52.67;22.75;;;;;;;1.01;57.83;102011.16;5088142;28;20040;-20
2022/01/13 09:00:09;;;;;;;18.25;9.02;;;;;;;1.23;56.88;102005.22;5069391;28;20024;-20
2022/01/13 09:02:34;;;;;;;14.93;7.85;;;;;;;1.14;57.06;102008.47;5088068;28;20058;-20
2022/01/13 09:05:01;;;;;;;17.58;8.73;;;;;;;0.87;57.86;101987.66;5087966;28;20032;-20
2022/01/13 09:07:27;;;;;;;17.75;8.23;;;;;;;0.94;57.05;102004.63;5069819;28;20032;-21
2022/01/13 09:09:52;;;;;;;15.32;8.32;;;;;;;0.84;58.73;101987.84;5087843;28;20035;-21
2022/01/13 09:12:17;;;;;;;14.90;7.85;;;;;;;1.24;58.43;101992.91;5070063;28;20040;-21
2022/01/13 09:14:43;;;;;;;16.52;9.23;;;;;;;1.32;56.90;101973.00;5088538;28;20036;-20
2022/01/13 09:17:18;;;;;;;19.45;10.00;;;;;;;1.38;58.01;101982.22;5088446;28;20039;-20
2022/01/13 09:19:44;;;;;;;18.88;10.50;;;;;;;1.36;56.66;101978.88;5088702;28;20650;-20
2022/01/13 09:22:09;;;;;;;20.60;10.50;;;;;;;1.25;58.09;101979.66;5070350;28;20110;-20
2022/01/13 09:24:35;;;;;;;27.48;11.45;;;;;;;1.58;58.49;101978.97;5070733;28;20867;-21
2022/01/13 09:27:00;;;;;;;19.58;10.20;;;;;;;1.32;57.98;101974.78;5087309;28;20047;-21
2022/01/13 09:29:28;;;;;;;20.75;10.00;;;;;;;1.46;57.09;101974.63;5088239;28;20035;-20
2022/01/13 09:31:53;;;;;;;17.08;9.50;;;;;;;1.67;55.11;101981.88;5069291;28;20126;-21
2022/01/13 09:34:19;;;;;;;20.52;10.02;;;;;;;1.55;56.73;101981.84;5087663;28;20046;-20
2022/01/13 09:36:44;;;;;;;20.02;8.93;;;;;;;1.64;56.46;101980.31;5087368;28;20044;-20
2022/01/13 09:39:10;;;;;;;20.13;9.90;;;;;;;1.54;56.93;101939.88;5087132;28;20689;-20
2022/01/13 09:41:37;;;;;;;20.63;12.85;;;;;;;2.14;55.71;101945.88;5069171;28;20066;-20
2022/01/13 09:44:07;;;;;;;18.40;9.75;;;;;;;2.11;56.49;101973.28;5069112;28;20538;-20
2022/01/13 09:46:33;;;;;;;17.98;9.20;;;;;;;1.89;53.93;101970.59;5069308;28;20103;-21
2022/01/13 09:49:02;;;;;;;21.33;10.35;;;;;;;1.98;55.18;101973.38;5068357;28;20484;-20
2022/01/13 09:51:28;;;;;;;33.55;17.30;;;;;;;1.91;55.89;101961.63;5086950;28;20032;-22
2022/01/13 09:53:53;;;;;;;19.60;10.43;;;;;;;2.06;54.33;101964.06;5087210;28;20024;-20
2022/01/13 09:56:19;;;;;;;20.08;9.63;;;;;;;2.05;54.28;101954.50;5068580;28;20411;-20
2022/01/13 09:58:45;;;;;;;23.10;11.60;;;;;;;2.40;53.38;101964.94;5087124;28;20032;-21
2022/01/13 10:01:14;;;;;;;18.08;9.80;;;;;;;1.94;55.40;101950.88;5068725;28;20089;-20
2022/01/13 10:03:39;;;;;;;19.83;10.70;;;;;;;2.24;55.00;101960.00;5068745;28;20081;-20
2022/01/13 10:06:13;;;;;;;21.27;10.80;;;;;;;2.13;57.14;101952.13;5068568;28;20044;-21
2022/01/13 10:08:54;;;;;;;20.45;11.02;;;;;;;2.35;54.86;101944.25;5086909;28;20024;-20
2022/01/13 10:11:35;;;;;;;20.23;9.65;;;;;;;2.64;53.39;101943.75;5086812;28;20032;-20
2022/01/13 10:16:22;;;;;;;45.28;25.08;;;;;;;2.57;51.57;101929.38;5069036;28;20484;-20
2022/01/13 10:17:07;;;;;;;27.20;13.63;;;;;;;2.45;53.76;101920.66;5086340;28;20039;-21
2022/01/13 10:19:37;;;;;;;23.50;11.75;;;;;;;2.72;53.12;101922.09;5068284;28;20048;-20
2022/01/13 10:22:07;;;;;;;20.27;10.65;;;;;;;2.22;54.24;101898.75;5086649;28;20054;-19
2022/01/13 10:24:39;;;;;;;22.88;11.40;;;;;;;1.90;53.23;101902.09;5087149;28;20024;-20
2022/01/13 10:27:12;;;;;;;21.42;11.25;;;;;;;2.09;54.10;101892.78;5068440;28;20043;-20
2022/01/13 10:29:59;;;;;;;25.58;13.68;;;;;;;2.42;56.45;101887.50;5086660;28;20036;-20
2022/01/13 10:32:38;;;;;;;22.73;10.85;;;;;;;2.36;52.92;101874.81;5086991;28;20055;-20
2022/01/13 10:35:14;;;;;;;19.25;9.43;;;;;;;2.45;53.66;101873.25;5068427;28;20032;-20
2022/01/13 10:37:54;;;;;;;19.70;10.57;;;;;;;2.30;53.93;101871.84;5087961;28;20064;-20
2022/01/13 10:40:25;;;;;;;19.65;10.38;;;;;;;2.58;54.90;101852.88;5090942;28;20518;-20
2022/01/13 10:45:28;;;;;;;19.35;9.20;;;;;;;2.76;51.10;101840.03;5090304;28;20044;-20
2022/01/13 10:48:06;;;;;;;21.88;10.52;;;;;;;2.58;54.50;101841.53;5090252;28;20031;-20
2022/01/13 10:50:33;;;;;;;22.52;12.48;;;;;;;2.76;52.85;101837.41;5090265;28;20032;-20
2022/01/13 10:53:02;;;;;;;26.25;13.07;;;;;;;3.18;52.84;101831.38;5090266;28;20548;-21
2022/01/13 10:55:29;;;;;;;24.77;12.45;;;;;;;3.28;51.65;101834.09;5090438;28;20047;-21
2022/01/13 10:57:54;;;;;;;22.80;10.68;;;;;;;3.14;51.48;101827.31;5090154;28;20036;-20
2022/01/13 11:00:21;;;;;;;20.83;10.57;;;;;;;3.10;50.71;101802.16;5090103;28;20042;-20
2022/01/13 11:02:58;;;;;;;19.95;11.10;;;;;;;3.19;51.71;101815.44;5090034;28;20047;-21
2022/01/13 11:05:23;;;;;;;20.08;10.93;;;;;;;2.96;50.76;101808.56;5073389;28;20042;-20
2022/01/13 11:07:49;;;;;;;20.15;10.90;;;;;;;3.09;50.51;101814.53;5089941;28;20450;-20
2022/01/13 11:10:14;;;;;;;22.13;12.15;;;;;;;3.61;52.32;101822.50;5071667;28;20035;-19
2022/01/13 11:12:43;;;;;;;23.13;11.70;;;;;;;4.52;51.04;101814.66;5089945;28;20028;-21
2022/01/13 11:15:15;;;;;;;21.30;10.23;;;;;;;4.07;49.99;101783.41;5071311;28;20165;-20
2022/01/13 11:17:43;;;;;;;20.00;10.38;;;;;;;3.82;50.66;101791.66;5071427;28;20052;-20
2022/01/13 11:20:09;;;;;;;21.05;10.75;;;;;;;4.12;50.50;101782.03;5089814;28;20051;-20
2022/01/13 11:22:37;;;;;;;21.33;11.20;;;;;;;4.32;49.32;101782.09;5089640;28;20032;-20
2022/01/13 11:25:04;;;;;;;23.15;11.57;;;;;;;4.28;49.53;101760.38;5089420;28;20050;-20
2022/01/13 11:27:29;;;;;;;21.58;12.20;;;;;;;4.43;48.73;101774.88;5089703;28;20115;-20
2022/01/13 11:29:55;;;;;;;25.63;12.77;;;;;;;4.50;48.60;101769.88;5054491;28;20127;-20
2022/01/13 11:32:21;;;;;;;22.75;10.65;;;;;;;4.28;49.36;101764.84;5089701;28;20027;-20
2022/01/13 11:34:46;;;;;;;22.90;12.35;;;;;;;5.00;47.84;101760.97;5071632;28;20028;-19
2022/01/13 11:37:12;;;;;;;19.95;11.95;;;;;;;5.98;47.34;101761.56;5071010;28;20081;-19